createdAt,value
2023-02-09T00:00:14.040Z,71.24
2023-02-09T00:02:18.696Z,71.27
2023-02-09T00:04:21.738Z,71.41
2023-02-09T00:06:29.812Z,70.86
2023-02-09T00:08:33.704Z,71.05
2023-02-09T00:10:37.078Z,71.22
2023-02-09T00:12:58.393Z,71.58
2023-02-09T00:15:01.571Z,71.67
2023-02-09T00:17:05.760Z,72.08
2023-02-09T00:19:09.233Z,72.07
2023-02-09T00:21:13.010Z,71.64
2023-02-09T00:23:17.578Z,71.07
2023-02-09T00:25:20.679Z,71.42
2023-02-09T00:27:23.745Z,71.40
2023-02-09T00:29:27.628Z,71.38
2023-02-09T00:31:30.839Z,71.37
2023-02-09T00:33:34.853Z,72.00
2023-02-09T00:35:41.552Z,72.40
2023-02-09T00:37:44.801Z,73.33
2023-02-09T00:39:49.635Z,73.49
2023-02-09T00:42:07.841Z,73.61
2023-02-09T00:44:12.532Z,73.79
2023-02-09T00:46:15.757Z,73.51
2023-02-09T00:48:18.981Z,73.27
2023-02-09T00:50:22.245Z,72.85
2023-02-09T00:52:25.345Z,72.87
2023-02-09T00:54:29.797Z,72.75
2023-02-09T00:56:34.239Z,72.85
2023-02-09T00:58:37.359Z,73.07
2023-02-09T01:00:40.446Z,73.04
2023-02-09T01:02:43.683Z,73.32
2023-02-09T01:04:46.721Z,73.25
2023-02-09T01:06:51.883Z,73.30
2023-02-09T01:08:55.015Z,73.31
2023-02-09T01:10:58.124Z,73.52
2023-02-09T01:13:02.583Z,73.44
2023-02-09T01:15:06.165Z,73.64
2023-02-09T01:17:09.255Z,73.54
2023-02-09T01:19:13.499Z,73.71
2023-02-09T01:21:18.381Z,73.20
2023-02-09T01:23:21.466Z,73.80
2023-02-09T01:25:24.786Z,73.95
2023-02-09T01:27:27.851Z,74.14
2023-02-09T01:29:32.297Z,74.25
2023-02-09T01:31:36.926Z,74.66
2023-02-09T01:33:40.004Z,74.43
2023-02-09T01:35:43.134Z,74.71
2023-02-09T01:37:46.345Z,74.81
2023-02-09T01:39:51.044Z,75.21
2023-02-09T01:41:54.205Z,75.05
2023-02-09T01:44:00.021Z,75.35
2023-02-09T01:46:04.743Z,75.30
2023-02-09T01:48:10.084Z,75.51
2023-02-09T01:50:14.296Z,75.09
2023-02-09T01:52:22.730Z,75.25
2023-02-09T01:54:28.437Z,75.12
2023-02-09T01:56:32.268Z,74.66
2023-02-09T01:58:36.192Z,74.99
2023-02-09T02:00:39.893Z,74.57
2023-02-09T02:02:47.524Z,74.44
2023-02-09T02:04:50.995Z,74.38
2023-02-09T02:06:56.783Z,74.66
2023-02-09T02:09:02.360Z,74.50
2023-02-09T02:11:06.035Z,74.80
2023-02-09T02:13:09.171Z,74.69
2023-02-09T02:15:12.645Z,74.56
2023-02-09T02:17:24.177Z,74.22
2023-02-09T02:20:04.976Z,73.85
2023-02-09T02:22:43.475Z,73.86
2023-02-09T02:25:12.360Z,74.04
2023-02-09T02:27:30.676Z,74.33
2023-02-09T02:30:04.693Z,75.21
2023-02-09T02:32:14.930Z,75.84
2023-02-09T02:34:21.864Z,76.48
2023-02-09T02:36:29.260Z,76.80
2023-02-09T02:38:36.000Z,77.08
2023-02-09T02:40:44.531Z,77.16
2023-02-09T02:42:52.849Z,77.09
2023-02-09T02:45:02.792Z,76.89
2023-02-09T02:47:08.636Z,77.06
2023-02-09T02:49:18.188Z,77.18
2023-02-09T02:51:26.350Z,76.82
2023-02-09T02:53:31.023Z,77.14
2023-02-09T02:55:35.082Z,77.03
2023-02-09T02:57:39.076Z,77.04
2023-02-09T02:59:45.677Z,77.04
2023-02-09T03:01:51.827Z,76.83
2023-02-09T03:03:55.510Z,77.23
2023-02-09T03:06:00.667Z,77.13
2023-02-09T03:08:03.856Z,77.46
2023-02-09T03:10:29.291Z,77.24
2023-02-09T03:12:43.145Z,77.49
2023-02-09T03:20:18.989Z,77.59
2023-02-09T03:22:30.069Z,77.99
2023-02-09T03:24:37.907Z,77.78
2023-02-09T03:26:44.026Z,77.57
2023-02-09T03:28:47.896Z,77.61
2023-02-09T03:30:51.323Z,78.17
2023-02-09T03:32:56.279Z,77.40
2023-02-09T03:34:59.447Z,77.44
2023-02-09T03:37:02.752Z,77.15
2023-02-09T03:39:07.298Z,77.39
2023-02-09T03:41:10.546Z,77.48
2023-02-09T03:43:13.717Z,77.61
2023-02-09T03:45:16.936Z,77.51
2023-02-09T03:47:20.533Z,77.76
2023-02-09T03:49:23.877Z,77.61
2023-02-09T03:51:26.947Z,77.61
2023-02-09T03:53:30.082Z,77.71
2023-02-09T03:55:34.766Z,77.68
2023-02-09T03:57:39.196Z,77.85
2023-02-09T03:59:42.296Z,77.62
2023-02-09T04:01:45.446Z,77.70
2023-02-09T04:03:48.844Z,77.38
2023-02-09T04:05:51.931Z,77.33
2023-02-09T04:07:55.304Z,77.17
2023-02-09T04:09:58.284Z,77.33
2023-02-09T04:12:03.003Z,77.86
2023-02-09T04:14:06.812Z,78.04
2023-02-09T04:16:10.278Z,78.89
2023-02-09T04:18:13.433Z,80.03
2023-02-09T04:20:16.645Z,79.71
2023-02-09T04:22:19.765Z,79.18
2023-02-09T04:24:23.076Z,79.20
2023-02-09T04:26:26.278Z,78.88
2023-02-09T04:28:30.947Z,78.73
2023-02-09T04:30:34.072Z,78.57
2023-02-09T04:32:37.267Z,78.75
2023-02-09T04:34:40.283Z,79.38
2023-02-09T04:36:43.442Z,78.23
2023-02-09T04:38:46.636Z,78.08
2023-02-09T04:40:50.523Z,78.27
2023-02-09T04:42:53.562Z,77.98
2023-02-09T04:44:58.055Z,78.39
2023-02-09T04:47:01.169Z,78.60
2023-02-09T04:49:04.306Z,78.84
2023-02-09T04:51:07.469Z,78.68
2023-02-09T04:53:11.421Z,79.05
2023-02-09T04:55:14.611Z,78.88
2023-02-09T04:57:37.386Z,78.73
2023-02-09T04:59:41.578Z,79.01
2023-02-09T05:01:46.090Z,79.41
2023-02-09T05:03:49.224Z,79.36
2023-02-09T05:05:55.585Z,79.33
2023-02-09T05:07:58.673Z,78.90
2023-02-09T05:10:01.732Z,78.58
2023-02-09T05:12:05.538Z,78.22
2023-02-09T05:14:08.601Z,78.09
2023-02-09T05:16:15.823Z,78.10
2023-02-09T05:18:20.853Z,78.42
2023-02-09T05:20:23.996Z,78.16
2023-02-09T05:22:27.156Z,78.28
2023-02-09T05:24:30.192Z,78.65
2023-02-09T05:26:33.364Z,78.69
2023-02-09T05:28:36.499Z,78.72
2023-02-09T05:30:39.578Z,78.36
2023-02-09T05:32:42.586Z,78.79
2023-02-09T05:34:47.070Z,78.62
2023-02-09T05:36:50.122Z,78.59
2023-02-09T05:38:53.209Z,78.73
2023-02-09T05:40:56.396Z,78.44
2023-02-09T05:42:59.732Z,77.71
2023-02-09T05:45:02.847Z,78.11
2023-02-09T05:47:06.081Z,78.17
2023-02-09T05:49:09.141Z,78.65
2023-02-09T05:51:13.565Z,78.51
2023-02-09T05:53:16.551Z,78.94
2023-02-09T05:55:19.796Z,78.91
2023-02-09T05:57:22.842Z,78.65
2023-02-09T05:59:25.967Z,78.32
2023-02-09T06:01:29.053Z,78.70
2023-02-09T06:03:32.290Z,79.04
2023-02-09T06:05:35.572Z,79.00
2023-02-09T06:07:40.006Z,79.20
2023-02-09T06:09:43.110Z,79.22
2023-02-09T06:11:47.038Z,79.24
2023-02-09T06:13:50.339Z,79.35
2023-02-09T06:15:53.480Z,79.28
2023-02-09T06:17:56.537Z,79.34
2023-02-09T06:19:59.846Z,79.45
2023-02-09T06:22:02.953Z,79.26
2023-02-09T06:24:07.714Z,78.76
2023-02-09T06:26:14.924Z,78.90
2023-02-09T06:28:18.007Z,78.61
2023-02-09T06:30:21.367Z,79.06
2023-02-09T06:32:24.469Z,78.79
2023-02-09T06:34:27.804Z,79.12
2023-02-09T06:36:30.878Z,79.30
2023-02-09T06:38:34.628Z,79.25
2023-02-09T06:40:39.241Z,78.98
2023-02-09T06:42:45.184Z,78.41
2023-02-09T06:44:48.563Z,77.83
2023-02-09T06:46:51.725Z,78.29
2023-02-09T06:48:54.917Z,78.71
2023-02-09T06:50:58.259Z,78.81
2023-02-09T06:53:01.717Z,78.92
2023-02-09T06:55:06.338Z,78.79
2023-02-09T06:57:10.858Z,78.63
2023-02-09T06:59:13.975Z,79.03
2023-02-09T07:01:17.681Z,78.52
2023-02-09T07:03:20.767Z,78.64
2023-02-09T07:05:24.023Z,78.44
2023-02-09T07:07:27.239Z,77.97
2023-02-09T07:09:30.464Z,77.49
2023-02-09T07:11:33.683Z,78.34
2023-02-09T07:13:38.831Z,77.51
2023-02-09T07:15:42.221Z,77.15
2023-02-09T07:17:45.366Z,77.39
2023-02-09T07:19:48.530Z,78.00
2023-02-09T07:21:51.639Z,77.85
2023-02-09T07:23:54.698Z,78.12
2023-02-09T07:25:57.768Z,77.25
2023-02-09T07:28:00.906Z,76.93
2023-02-09T07:30:06.378Z,77.02
2023-02-09T07:32:09.645Z,76.99
2023-02-09T07:34:12.896Z,77.18
2023-02-09T07:36:19.176Z,76.78
2023-02-09T07:38:22.350Z,76.92
2023-02-09T07:40:25.939Z,76.80
2023-02-09T07:42:29.394Z,76.30
2023-02-09T07:44:36.689Z,75.12
2023-02-09T07:46:41.302Z,75.12
2023-02-09T07:48:44.579Z,75.48
2023-02-09T07:50:50.972Z,75.53
2023-02-09T07:52:54.532Z,75.00
2023-02-09T07:54:57.696Z,73.84
2023-02-09T07:57:00.958Z,74.78
2023-02-09T07:59:04.243Z,74.56
2023-02-09T08:01:09.486Z,74.32
2023-02-09T08:03:14.827Z,74.85
2023-02-09T08:05:21.801Z,74.05
2023-02-09T08:07:24.966Z,73.57
2023-02-09T08:09:29.300Z,72.66
2023-02-09T08:11:35.138Z,72.83
2023-02-09T08:13:40.945Z,73.10
2023-02-09T08:15:46.082Z,73.53
2023-02-09T08:17:50.427Z,73.05
2023-02-09T08:20:00.163Z,73.67
2023-02-09T08:22:04.301Z,72.66
2023-02-09T08:24:07.885Z,71.52
2023-02-09T08:26:12.845Z,72.06
2023-02-09T08:28:17.237Z,71.96
2023-02-09T08:30:20.777Z,71.27
2023-02-09T08:32:24.033Z,72.00
2023-02-09T08:34:27.184Z,72.42
2023-02-09T08:36:32.597Z,71.85
2023-02-09T08:38:36.280Z,71.39
2023-02-09T08:40:41.555Z,71.01
2023-02-09T08:42:44.911Z,70.82
2023-02-09T08:44:48.105Z,70.08
2023-02-09T08:46:51.322Z,70.75
2023-02-09T08:48:54.882Z,69.97
2023-02-09T08:50:58.024Z,70.29
2023-02-09T08:53:02.988Z,70.62
2023-02-09T08:55:06.856Z,70.03
2023-02-09T08:57:09.890Z,70.12
2023-02-09T08:59:13.466Z,70.19
2023-02-09T09:01:16.768Z,70.54
2023-02-09T09:03:20.480Z,70.65
2023-02-09T09:05:23.579Z,70.28
2023-02-09T09:07:26.776Z,69.56
2023-02-09T09:09:31.359Z,69.96
2023-02-09T09:11:34.597Z,69.55
2023-02-09T09:13:37.719Z,69.33
2023-02-09T09:15:43.107Z,69.59
2023-02-09T09:17:46.260Z,69.89
2023-02-09T09:19:52.454Z,71.09
2023-02-09T09:21:55.668Z,70.87
2023-02-09T09:23:58.716Z,69.53
2023-02-09T09:26:03.638Z,70.02
2023-02-09T09:28:07.264Z,68.81
2023-02-09T09:30:11.516Z,69.19
2023-02-09T09:32:14.790Z,67.51
2023-02-09T09:34:17.956Z,67.62
2023-02-09T09:36:21.035Z,66.13
2023-02-09T09:38:24.082Z,65.41
2023-02-09T09:40:30.278Z,66.61
2023-02-09T09:42:37.834Z,66.95
2023-02-09T09:44:47.150Z,66.16
2023-02-09T09:46:52.699Z,66.57
2023-02-09T09:48:57.152Z,65.62
2023-02-09T09:51:08.360Z,66.94
2023-02-09T09:53:16.206Z,66.70
2023-02-09T09:55:23.277Z,64.40
2023-02-09T09:57:29.663Z,65.71
2023-02-09T09:59:38.639Z,65.71
2023-02-09T10:01:41.834Z,65.71
2023-02-09T10:03:45.171Z,64.46
2023-02-09T10:05:52.705Z,65.45
2023-02-09T10:08:00.206Z,64.92
2023-02-09T10:10:05.247Z,66.23
2023-02-09T10:12:24.288Z,65.19
2023-02-09T10:14:27.553Z,63.78
2023-02-09T10:16:34.570Z,65.06
2023-02-09T10:18:38.352Z,65.09
2023-02-09T10:20:47.244Z,65.74
2023-02-09T10:22:52.991Z,64.85
2023-02-09T10:24:56.143Z,65.34
2023-02-09T10:27:05.583Z,64.19
2023-02-09T10:29:23.799Z,64.56
2023-02-09T10:31:33.171Z,65.20
2023-02-09T10:33:43.301Z,63.63
2023-02-09T10:35:51.070Z,65.08
2023-02-09T10:37:59.599Z,63.97
2023-02-09T10:40:09.567Z,65.59
2023-02-09T10:42:19.187Z,65.21
2023-02-09T10:44:24.333Z,64.95
2023-02-09T10:46:27.492Z,65.11
2023-02-09T10:48:42.700Z,66.28
2023-02-09T10:50:51.122Z,66.28
2023-02-09T10:52:59.664Z,63.83
2023-02-09T10:55:06.267Z,64.88
2023-02-09T10:57:25.709Z,65.72
2023-02-09T10:59:28.932Z,65.18
2023-02-09T11:01:34.254Z,64.43
2023-02-09T11:03:38.543Z,64.23
2023-02-09T11:05:43.088Z,63.66
2023-02-09T11:07:46.208Z,63.62
2023-02-09T11:09:51.789Z,64.08
2023-02-09T11:11:55.068Z,64.53
2023-02-09T11:13:58.331Z,65.17
2023-02-09T11:16:27.662Z,63.43
2023-02-09T11:18:33.871Z,63.15
2023-02-09T11:20:37.677Z,63.57
2023-02-09T11:22:54.880Z,62.82
2023-02-09T11:25:05.293Z,64.13
2023-02-09T11:27:23.607Z,64.22
2023-02-09T11:29:30.472Z,64.54
2023-02-09T11:31:44.438Z,64.61
2023-02-09T11:33:52.404Z,62.14
2023-02-09T11:36:02.844Z,63.24
2023-02-09T11:38:11.012Z,64.33
2023-02-09T11:40:27.242Z,63.94
2023-02-09T11:42:47.846Z,63.59
2023-02-09T11:44:56.579Z,63.41
2023-02-09T11:47:04.534Z,63.83
2023-02-09T11:49:12.985Z,62.03
2023-02-09T11:51:18.622Z,62.45
2023-02-09T11:53:29.512Z,64.07
2023-02-09T11:55:38.655Z,63.00
2023-02-09T11:57:43.291Z,63.45
2023-02-09T11:59:54.809Z,63.44
2023-02-09T12:02:02.758Z,62.63
2023-02-09T12:04:13.406Z,62.66
2023-02-09T12:06:22.871Z,62.19
2023-02-09T12:08:42.841Z,63.49
2023-02-09T12:10:50.077Z,63.55
2023-02-09T12:12:55.640Z,63.34
2023-02-09T12:15:05.503Z,62.78
2023-02-09T12:17:13.235Z,62.90
2023-02-09T12:19:26.867Z,62.37
2023-02-09T12:21:32.421Z,61.96
2023-02-09T12:23:37.933Z,61.93
2023-02-09T12:25:51.699Z,61.68
2023-02-09T12:28:39.066Z,61.50
2023-02-09T12:31:02.726Z,61.57
2023-02-09T12:33:17.366Z,61.23
2023-02-09T12:35:39.107Z,60.85
2023-02-09T12:38:09.024Z,61.11
2023-02-09T12:40:23.725Z,61.25
2023-02-09T12:42:29.180Z,61.52
2023-02-09T12:44:39.562Z,61.57
2023-02-09T12:46:51.838Z,61.64
2023-02-09T12:49:20.825Z,60.67
2023-02-09T12:51:51.571Z,61.84
2023-02-09T12:53:56.079Z,61.84
2023-02-09T12:56:02.165Z,63.03
2023-02-09T12:58:39.621Z,61.90
2023-02-09T13:00:53.905Z,61.74
2023-02-09T13:02:57.694Z,61.19
2023-02-09T13:05:04.008Z,61.69
2023-02-09T13:07:12.139Z,61.13
2023-02-09T13:09:20.753Z,61.61
2023-02-09T13:11:30.435Z,60.79
2023-02-09T13:13:44.820Z,60.20
2023-02-09T13:15:53.242Z,60.20
2023-02-09T13:18:03.836Z,60.23
2023-02-09T13:20:29.676Z,59.74
2023-02-09T13:22:40.215Z,58.88
2023-02-09T13:24:49.419Z,59.29
2023-02-09T13:26:55.633Z,60.07
2023-02-09T13:29:19.816Z,58.82
2023-02-09T13:31:26.348Z,58.72
2023-02-09T13:33:36.858Z,58.84
2023-02-09T13:35:47.218Z,58.84
2023-02-09T13:37:53.461Z,58.52
2023-02-09T13:40:00.780Z,59.56
2023-02-09T13:42:13.191Z,59.56
2023-02-09T13:44:23.996Z,60.41
2023-02-09T13:46:31.423Z,60.20
2023-02-09T13:48:35.868Z,60.41
2023-02-09T13:50:48.089Z,60.06
2023-02-09T13:52:52.067Z,60.27
2023-02-09T13:54:55.476Z,60.05
2023-02-09T13:56:58.547Z,60.32
2023-02-09T13:59:03.293Z,60.13
2023-02-09T14:01:08.110Z,60.71
2023-02-09T14:03:17.771Z,60.80
2023-02-09T14:05:28.601Z,60.89
2023-02-09T14:07:34.752Z,59.82
2023-02-09T14:09:43.711Z,60.05
2023-02-09T14:11:50.701Z,60.51
2023-02-09T14:13:56.355Z,60.19
2023-02-09T14:16:07.323Z,59.70
2023-02-09T14:18:24.290Z,60.05
2023-02-09T14:20:27.576Z,60.21
2023-02-09T14:22:32.356Z,60.03
2023-02-09T14:24:43.674Z,60.43
2023-02-09T14:26:50.476Z,60.07
2023-02-09T14:28:55.825Z,60.05
2023-02-09T14:31:00.593Z,59.82
2023-02-09T14:33:04.308Z,59.78
2023-02-09T14:35:18.729Z,60.10
2023-02-09T14:37:31.685Z,60.05
2023-02-09T14:39:34.913Z,60.48
2023-02-09T14:41:38.216Z,60.73
2023-02-09T14:43:41.487Z,60.29
2023-02-09T14:45:46.546Z,60.43
2023-02-09T14:47:51.289Z,60.15
2023-02-09T14:49:54.510Z,60.00
2023-02-09T14:52:04.052Z,60.29
2023-02-09T14:54:19.219Z,60.58
2023-02-09T14:56:25.360Z,60.12
2023-02-09T14:58:29.757Z,60.15
2023-02-09T15:00:33.569Z,60.50
2023-02-09T15:02:36.716Z,60.50
2023-02-09T15:04:41.960Z,60.93
2023-02-09T15:06:47.215Z,60.54
2023-02-09T15:08:50.285Z,61.12
2023-02-09T15:10:55.336Z,60.62
2023-02-09T15:12:58.968Z,60.74
2023-02-09T15:15:02.869Z,60.98
2023-02-09T15:17:17.271Z,60.90
2023-02-09T15:19:22.534Z,60.89
2023-02-09T15:21:26.946Z,60.96
2023-02-09T15:23:30.016Z,61.21
2023-02-09T15:25:33.120Z,61.30
2023-02-09T15:27:37.624Z,60.75
2023-02-09T15:29:40.662Z,60.78
2023-02-09T15:31:43.922Z,61.51
2023-02-09T15:33:47.171Z,60.81
2023-02-09T15:35:50.321Z,61.21
2023-02-09T15:37:57.263Z,61.20
2023-02-09T15:40:03.935Z,60.79
2023-02-09T15:42:29.553Z,61.08
2023-02-09T15:44:50.254Z,60.47
2023-02-09T15:47:10.728Z,60.95
2023-02-09T15:49:13.873Z,61.01
2023-02-09T15:51:17.501Z,61.32
2023-02-09T15:53:22.206Z,60.94
2023-02-09T15:55:27.145Z,61.36
2023-02-09T15:57:30.256Z,61.87
2023-02-09T15:59:33.424Z,62.06
2023-02-09T16:01:37.125Z,62.25
2023-02-09T16:03:40.264Z,62.09
2023-02-09T16:05:43.631Z,62.43
2023-02-09T16:07:46.899Z,62.79
2023-02-09T16:09:51.601Z,62.90
2023-02-09T16:11:54.923Z,62.41
2023-02-09T16:13:58.127Z,62.27
2023-02-09T16:16:15.997Z,62.29
2023-02-09T16:18:20.050Z,62.23
2023-02-09T16:20:25.628Z,62.38
2023-02-09T16:22:29.505Z,62.48
2023-02-09T16:24:37.794Z,62.52
2023-02-09T16:26:42.262Z,62.98
2023-02-09T16:28:47.043Z,62.78
2023-02-09T16:30:53.088Z,62.83
2023-02-09T16:32:56.765Z,62.90
2023-02-09T16:35:14.511Z,63.03
2023-02-09T16:37:29.955Z,61.92
2023-02-09T16:39:33.151Z,63.02
2023-02-09T16:41:48.215Z,63.26
2023-02-09T16:43:52.736Z,62.87
2023-02-09T16:46:03.425Z,63.06
2023-02-09T16:48:07.852Z,64.06
2023-02-09T16:50:22.756Z,64.33
2023-02-09T16:52:26.923Z,64.70
2023-02-09T16:54:31.049Z,63.79
2023-02-09T16:56:35.930Z,65.17
2023-02-09T16:58:40.644Z,64.53
2023-02-09T17:00:46.047Z,64.92
2023-02-09T17:02:52.381Z,65.69
2023-02-09T17:04:55.734Z,64.98
2023-02-09T17:06:58.861Z,65.19
2023-02-09T17:09:01.897Z,65.43
2023-02-09T17:11:05.696Z,65.72
2023-02-09T17:13:08.877Z,65.57
2023-02-09T17:15:28.586Z,65.95
2023-02-09T17:17:34.421Z,66.20
2023-02-09T17:19:47.415Z,66.68
2023-02-09T17:21:51.250Z,67.31
2023-02-09T17:23:55.278Z,67.46
2023-02-09T17:25:58.839Z,68.15
2023-02-09T17:28:02.154Z,68.32
2023-02-09T17:30:05.821Z,68.46
2023-02-09T17:32:12.676Z,68.97
2023-02-09T17:34:18.005Z,68.80
2023-02-09T17:36:27.079Z,68.83
2023-02-09T17:38:32.582Z,69.24
2023-02-09T17:40:36.574Z,69.72
2023-02-09T17:42:39.650Z,69.69
2023-02-09T17:44:46.342Z,70.07
2023-02-09T17:46:50.232Z,70.35
2023-02-09T17:48:53.414Z,70.31
2023-02-09T17:51:00.238Z,70.19
2023-02-09T17:53:03.399Z,70.20
2023-02-09T17:55:06.998Z,70.42
2023-02-09T17:57:10.430Z,70.23
2023-02-09T17:59:15.003Z,70.49
2023-02-09T18:01:26.436Z,71.14
2023-02-09T18:03:29.899Z,71.18
2023-02-09T18:05:34.619Z,71.24
2023-02-09T18:07:39.179Z,70.92
2023-02-09T18:09:42.385Z,70.90
2023-02-09T18:12:02.067Z,71.03
2023-02-09T18:14:05.330Z,70.97
2023-02-09T18:16:08.613Z,71.90
2023-02-09T18:18:11.897Z,71.83
2023-02-09T18:20:17.577Z,71.95
2023-02-09T18:22:20.839Z,72.11
2023-02-09T18:24:26.982Z,72.00
2023-02-09T18:26:30.140Z,72.50
2023-02-09T18:28:33.322Z,72.31
2023-02-09T18:30:38.478Z,72.48
2023-02-09T18:32:41.797Z,72.73
2023-02-09T18:34:45.239Z,72.78
2023-02-09T18:36:48.378Z,73.40
2023-02-09T18:38:53.468Z,72.97
2023-02-09T18:40:57.894Z,73.28
2023-02-09T18:43:01.125Z,73.85
2023-02-09T18:45:04.796Z,73.79
2023-02-09T18:47:07.997Z,73.76
2023-02-09T18:49:12.909Z,73.75
2023-02-09T18:51:18.372Z,74.38
2023-02-09T18:53:22.230Z,74.38
2023-02-09T18:55:29.236Z,75.06
2023-02-09T18:57:33.824Z,74.97
2023-02-09T18:59:37.571Z,75.32
2023-02-09T19:01:41.020Z,75.20
2023-02-09T19:03:44.244Z,74.83
2023-02-09T19:05:48.542Z,75.30
2023-02-09T19:07:51.844Z,74.95
2023-02-09T19:09:55.769Z,75.39
2023-02-09T19:11:58.976Z,75.13
2023-02-09T19:14:21.168Z,74.98
2023-02-09T19:16:24.425Z,74.98
2023-02-09T19:18:27.855Z,75.85
2023-02-09T19:20:34.191Z,75.82
2023-02-09T19:22:38.702Z,75.36
2023-02-09T19:24:41.878Z,74.35
2023-02-09T19:26:45.192Z,74.76
2023-02-09T19:28:48.585Z,74.95
2023-02-09T19:30:53.209Z,75.74
2023-02-09T19:32:57.783Z,75.35
2023-02-09T19:35:00.932Z,75.81
2023-02-09T19:37:05.489Z,75.59
2023-02-09T19:39:08.668Z,76.13
2023-02-09T19:41:13.559Z,76.11
2023-02-09T19:43:16.761Z,76.46
2023-02-09T19:45:19.908Z,76.01
2023-02-09T19:47:26.071Z,76.03
2023-02-09T19:49:29.765Z,76.01
2023-02-09T19:51:32.991Z,75.81
2023-02-09T19:53:36.307Z,75.78
2023-02-09T19:55:39.503Z,76.27
2023-02-09T19:57:43.361Z,75.92
2023-02-09T19:59:46.761Z,75.90
2023-02-09T20:01:50.144Z,76.95
2023-02-09T20:03:55.204Z,76.29
2023-02-09T20:05:58.419Z,76.65
2023-02-09T20:08:01.606Z,76.28
2023-02-09T20:10:05.454Z,76.61
2023-02-09T20:12:08.900Z,76.68
2023-02-09T20:14:12.602Z,76.49
2023-02-09T20:16:19.985Z,77.03
2023-02-09T20:18:23.468Z,76.97
2023-02-09T20:20:28.031Z,77.10
2023-02-09T20:22:31.332Z,77.10
2023-02-09T20:24:34.614Z,77.46
2023-02-09T20:26:37.818Z,76.98
2023-02-09T20:28:41.337Z,77.24
2023-02-09T20:30:46.477Z,77.21
2023-02-09T20:32:49.840Z,77.08
2023-02-09T20:34:52.993Z,77.61
2023-02-09T20:36:58.884Z,77.65
2023-02-09T20:39:02.000Z,77.55
2023-02-09T20:41:09.148Z,77.89
2023-02-09T20:43:31.274Z,78.13
2023-02-09T20:45:52.566Z,77.46
2023-02-09T20:47:55.787Z,77.74
2023-02-09T20:50:00.183Z,77.66
2023-02-09T20:52:05.217Z,77.43
2023-02-09T20:54:08.535Z,77.96
2023-02-09T20:56:12.385Z,77.60
2023-02-09T20:58:15.830Z,77.86
2023-02-09T21:00:19.504Z,77.53
2023-02-09T21:02:22.716Z,77.71
2023-02-09T21:04:26.705Z,77.97
2023-02-09T21:06:30.063Z,78.19
2023-02-09T21:08:36.799Z,78.19
2023-02-09T21:10:40.366Z,77.81
2023-02-09T21:12:43.653Z,78.43
2023-02-09T21:14:47.777Z,78.17
2023-02-09T21:16:55.383Z,77.98
2023-02-09T21:18:58.919Z,78.26
2023-02-09T21:21:02.002Z,77.94
2023-02-09T21:23:05.238Z,77.99
2023-02-09T21:25:10.562Z,78.66
2023-02-09T21:27:14.239Z,78.40
2023-02-09T21:29:17.626Z,78.06
2023-02-09T21:31:22.594Z,77.92
2023-02-09T21:33:26.189Z,77.31
2023-02-09T21:35:29.411Z,78.22
2023-02-09T21:37:32.919Z,78.05
2023-02-09T21:39:36.093Z,78.31
2023-02-09T21:41:58.406Z,78.61
2023-02-09T21:44:01.783Z,78.90
2023-02-09T21:46:05.291Z,79.09
2023-02-09T21:48:08.494Z,79.08
2023-02-09T21:50:12.963Z,78.24
2023-02-09T21:52:16.071Z,78.15
2023-02-09T21:54:32.975Z,78.75
2023-02-09T21:56:40.844Z,79.13
2023-02-09T21:58:45.636Z,78.85
2023-02-09T22:00:57.643Z,78.99
2023-02-09T22:03:00.734Z,78.85
2023-02-09T22:05:04.372Z,78.76
2023-02-09T22:07:07.435Z,79.12
2023-02-09T22:09:10.556Z,78.96
2023-02-09T22:11:13.604Z,78.72
2023-02-09T22:13:16.724Z,78.64
2023-02-09T22:15:21.214Z,77.94
2023-02-09T22:17:24.329Z,78.09
2023-02-09T22:19:27.507Z,77.94
2023-02-09T22:21:30.737Z,78.47
2023-02-09T22:23:33.895Z,79.22
2023-02-09T22:25:37.300Z,79.14
2023-02-09T22:27:40.354Z,79.44
2023-02-09T22:29:44.258Z,79.69
2023-02-09T22:31:48.817Z,79.69
2023-02-09T22:33:54.283Z,79.80
2023-02-09T22:35:57.376Z,79.68
2023-02-09T22:38:00.631Z,79.73
2023-02-09T22:40:03.705Z,79.43
2023-02-09T22:42:07.005Z,79.47
2023-02-09T22:44:13.222Z,79.58
2023-02-09T22:46:16.584Z,79.76
2023-02-09T22:48:21.092Z,80.06
2023-02-09T22:50:24.550Z,79.93
2023-02-09T22:52:27.917Z,80.19
2023-02-09T22:54:33.898Z,80.34
2023-02-09T22:56:37.165Z,80.27
2023-02-09T22:58:40.402Z,79.82
2023-02-09T23:00:43.441Z,79.89
2023-02-09T23:02:46.630Z,80.35
2023-02-09T23:04:51.160Z,80.02
2023-02-09T23:06:54.292Z,80.22
2023-02-09T23:08:59.816Z,80.79
2023-02-09T23:11:04.184Z,80.56
2023-02-09T23:13:07.440Z,80.78
2023-02-09T23:15:11.177Z,80.60
2023-02-09T23:17:14.382Z,80.47
2023-02-09T23:19:19.558Z,80.12
2023-02-09T23:21:26.199Z,80.26
2023-02-09T23:23:29.291Z,80.35
2023-02-09T23:25:32.406Z,80.33
2023-02-09T23:27:35.520Z,80.40
2023-02-09T23:29:38.621Z,80.58
2023-02-09T23:31:42.256Z,80.89
2023-02-09T23:33:45.804Z,81.03
2023-02-09T23:35:48.971Z,80.91
2023-02-09T23:37:53.579Z,80.97
2023-02-09T23:39:56.617Z,80.91
2023-02-09T23:41:59.667Z,80.70
2023-02-09T23:44:03.299Z,80.70
2023-02-09T23:46:07.957Z,80.52
2023-02-09T23:48:11.057Z,80.56
2023-02-09T23:50:14.220Z,80.65
2023-02-09T23:52:17.361Z,81.05
2023-02-09T23:54:21.853Z,80.99
2023-02-09T23:56:25.101Z,81.23
2023-02-09T23:58:30.567Z,81.00
